Portada
METAR-TAF:

METAR-TAF

Aeroports :

Nakhon Ratchasima, Tailàndia

latitud: 14-56-58N, longitud: 102-18-45E, altitud: 233 m

Observació

L'informe es va fer fa 41 minuts, a les 00:00 UTC
Vent 1 kt amb direcció variable
Temperatura 20°C
Humitat 100%
Pressió 1016 hPa
Visibilitat 10 km o més
sense núvols per sota de 1500 mi sense presència de cumulonimbus.

METAR: VTUQ 260000Z VRB01KT CAVOK 20/20 Q1016 NOSIG

Hora: 07:41 (00:41 UTC)

Pronòstic

L'informe es va fer fa 1 hora i 41 minuts, a les 23:00 UTC
Pronòstic vàlid del 26 a les 00 UTC al 26 a les 24 UTC
Vent 6 kt del Nord/Nord-Est
Visibilitat 10 km o més
Escasses núvols a una alçada de 3000 ft

TAF: VTUQ 252300Z 2600/2624 02006KT 9999 FEW030

Observacions i pronòstics meteorològics de més de 4000 aeroports (METAR i TAF).

Les estacions disponibles són els punts grocs i vermells al mapa.

Posi el ratolí al punt desitjat per veure el nom de l'estació.

Feu clic per veure les observacions i els pronòstics meteorològics.

Per canviar el mapa: feu clic els botons verds amb una creu de color negre per apropar; al botó verd amb un guió per allunyar la imatge; o en les fletxes verdes per a mapes adjacents.


METAR-TAF: